sensor_id;sensor_type;location;lat;lon;timestamp;P1;durP1;ratioP1;P2;durP2;ratioP2
62584;SDS011;48643;51.670;5.808;2023-09-18T00:00:33;4.60;;;3.92;;
62584;SDS011;48643;51.670;5.808;2023-09-18T00:03:01;5.18;;;3.90;;
62584;SDS011;48643;51.670;5.808;2023-09-18T00:05:29;7.33;;;4.20;;
62584;SDS011;48643;51.670;5.808;2023-09-18T00:07:57;5.05;;;4.10;;
62584;SDS011;48643;51.670;5.808;2023-09-18T00:10:25;7.20;;;4.40;;
62584;SDS011;48643;51.670;5.808;2023-09-18T00:12:52;6.30;;;4.13;;
62584;SDS011;48643;51.670;5.808;2023-09-18T00:15:19;5.97;;;4.20;;
62584;SDS011;48643;51.670;5.808;2023-09-18T00:17:46;5.75;;;3.90;;
62584;SDS011;48643;51.670;5.808;2023-09-18T00:20:13;6.03;;;4.07;;
62584;SDS011;48643;51.670;5.808;2023-09-18T00:22:40;4.88;;;3.95;;
62584;SDS011;48643;51.670;5.808;2023-09-18T00:25:07;5.15;;;4.10;;
62584;SDS011;48643;51.670;5.808;2023-09-18T00:27:33;5.05;;;4.35;;
62584;SDS011;48643;51.670;5.808;2023-09-18T00:30:05;5.88;;;4.03;;
62584;SDS011;48643;51.670;5.808;2023-09-18T00:32:33;5.13;;;4.20;;
62584;SDS011;48643;51.670;5.808;2023-09-18T00:35:00;4.60;;;4.13;;
62584;SDS011;48643;51.670;5.808;2023-09-18T00:37:28;5.28;;;4.00;;
62584;SDS011;48643;51.670;5.808;2023-09-18T00:39:55;5.57;;;4.40;;
62584;SDS011;48643;51.670;5.808;2023-09-18T00:42:22;4.80;;;3.95;;
62584;SDS011;48643;51.670;5.808;2023-09-18T00:44:49;4.97;;;3.92;;
62584;SDS011;48643;51.670;5.808;2023-09-18T00:47:16;5.18;;;4.13;;
62584;SDS011;48643;51.670;5.808;2023-09-18T00:49:44;5.90;;;3.95;;
62584;SDS011;48643;51.670;5.808;2023-09-18T00:52:14;4.72;;;3.83;;
62584;SDS011;48643;51.670;5.808;2023-09-18T00:54:42;5.47;;;4.30;;
62584;SDS011;48643;51.670;5.808;2023-09-18T00:57:09;5.75;;;4.40;;
62584;SDS011;48643;51.670;5.808;2023-09-18T00:59:37;6.85;;;4.32;;
62584;SDS011;48643;51.670;5.808;2023-09-18T01:02:04;5.28;;;3.95;;
62584;SDS011;48643;51.670;5.808;2023-09-18T01:04:32;4.78;;;4.05;;
62584;SDS011;48643;51.670;5.808;2023-09-18T01:07:00;6.15;;;4.45;;
62584;SDS011;48643;51.670;5.808;2023-09-18T01:09:33;4.78;;;4.18;;
62584;SDS011;48643;51.670;5.808;2023-09-18T01:12:23;5.25;;;4.10;;
62584;SDS011;48643;51.670;5.808;2023-09-18T01:15:01;4.72;;;4.03;;
62584;SDS011;48643;51.670;5.808;2023-09-18T01:17:35;5.28;;;4.18;;
62584;SDS011;48643;51.670;5.808;2023-09-18T01:20:10;4.78;;;3.70;;
62584;SDS011;48643;51.670;5.808;2023-09-18T01:22:38;4.95;;;3.90;;
62584;SDS011;48643;51.670;5.808;2023-09-18T01:25:05;5.55;;;3.80;;
62584;SDS011;48643;51.670;5.808;2023-09-18T01:27:33;6.88;;;3.72;;
62584;SDS011;48643;51.670;5.808;2023-09-18T01:30:00;4.70;;;3.78;;
62584;SDS011;48643;51.670;5.808;2023-09-18T01:32:27;5.57;;;4.00;;
62584;SDS011;48643;51.670;5.808;2023-09-18T01:34:57;6.22;;;4.10;;
62584;SDS011;48643;51.670;5.808;2023-09-18T01:37:27;5.00;;;3.90;;
62584;SDS011;48643;51.670;5.808;2023-09-18T01:39:55;5.55;;;4.10;;
62584;SDS011;48643;51.670;5.808;2023-09-18T01:42:26;5.40;;;4.00;;
62584;SDS011;48643;51.670;5.808;2023-09-18T01:44:54;6.45;;;4.13;;
62584;SDS011;48643;51.670;5.808;2023-09-18T01:47:21;6.82;;;4.03;;
62584;SDS011;48643;51.670;5.808;2023-09-18T01:49:53;4.95;;;3.95;;
62584;SDS011;48643;51.670;5.808;2023-09-18T01:52:20;4.80;;;3.80;;
62584;SDS011;48643;51.670;5.808;2023-09-18T01:54:47;5.38;;;4.05;;
62584;SDS011;48643;51.670;5.808;2023-09-18T01:57:14;5.78;;;3.90;;
62584;SDS011;48643;51.670;5.808;2023-09-18T01:59:41;6.45;;;4.15;;
62584;SDS011;48643;51.670;5.808;2023-09-18T02:02:08;5.03;;;4.07;;
62584;SDS011;48643;51.670;5.808;2023-09-18T02:04:40;5.45;;;4.00;;
62584;SDS011;48643;51.670;5.808;2023-09-18T02:07:27;4.85;;;3.88;;
62584;SDS011;48643;51.670;5.808;2023-09-18T02:09:54;5.13;;;3.92;;
62584;SDS011;48643;51.670;5.808;2023-09-18T02:12:21;6.38;;;3.80;;
62584;SDS011;48643;51.670;5.808;2023-09-18T02:14:48;5.63;;;4.07;;
62584;SDS011;48643;51.670;5.808;2023-09-18T02:17:14;5.43;;;4.20;;
62584;SDS011;48643;51.670;5.808;2023-09-18T02:19:41;4.95;;;3.90;;
62584;SDS011;48643;51.670;5.808;2023-09-18T02:22:09;6.95;;;3.90;;
62584;SDS011;48643;51.670;5.808;2023-09-18T02:24:36;5.25;;;4.05;;
62584;SDS011;48643;51.670;5.808;2023-09-18T02:27:03;4.97;;;3.90;;
62584;SDS011;48643;51.670;5.808;2023-09-18T02:29:31;3.95;;;3.55;;
62584;SDS011;48643;51.670;5.808;2023-09-18T02:31:59;4.72;;;3.53;;
62584;SDS011;48643;51.670;5.808;2023-09-18T02:34:26;5.78;;;3.70;;
62584;SDS011;48643;51.670;5.808;2023-09-18T02:36:53;4.65;;;3.70;;
62584;SDS011;48643;51.670;5.808;2023-09-18T02:39:20;6.20;;;3.90;;
62584;SDS011;48643;51.670;5.808;2023-09-18T02:41:48;4.00;;;3.58;;
62584;SDS011;48643;51.670;5.808;2023-09-18T02:44:15;4.78;;;3.70;;
62584;SDS011;48643;51.670;5.808;2023-09-18T02:46:42;4.82;;;3.75;;
62584;SDS011;48643;51.670;5.808;2023-09-18T02:49:11;4.78;;;3.78;;
62584;SDS011;48643;51.670;5.808;2023-09-18T02:51:38;6.13;;;3.72;;
62584;SDS011;48643;51.670;5.808;2023-09-18T02:54:05;5.03;;;3.90;;
62584;SDS011;48643;51.670;5.808;2023-09-18T02:56:32;7.00;;;3.95;;
62584;SDS011;48643;51.670;5.808;2023-09-18T02:58:59;6.15;;;3.50;;
62584;SDS011;48643;51.670;5.808;2023-09-18T03:01:26;4.85;;;3.90;;
62584;SDS011;48643;51.670;5.808;2023-09-18T03:03:52;6.93;;;3.83;;
62584;SDS011;48643;51.670;5.808;2023-09-18T03:06:20;5.45;;;4.13;;
62584;SDS011;48643;51.670;5.808;2023-09-18T03:08:46;4.97;;;3.65;;
62584;SDS011;48643;51.670;5.808;2023-09-18T03:11:15;4.73;;;3.90;;
62584;SDS011;48643;51.670;5.808;2023-09-18T03:13:43;5.15;;;3.83;;
62584;SDS011;48643;51.670;5.808;2023-09-18T03:16:16;4.53;;;3.58;;
62584;SDS011;48643;51.670;5.808;2023-09-18T03:18:44;5.27;;;3.90;;
62584;SDS011;48643;51.670;5.808;2023-09-18T03:21:11;6.55;;;4.00;;
62584;SDS011;48643;51.670;5.808;2023-09-18T03:23:38;6.85;;;3.80;;
62584;SDS011;48643;51.670;5.808;2023-09-18T03:26:05;6.35;;;3.97;;
62584;SDS011;48643;51.670;5.808;2023-09-18T03:28:32;4.43;;;3.65;;
62584;SDS011;48643;51.670;5.808;2023-09-18T03:30:59;4.90;;;3.65;;
62584;SDS011;48643;51.670;5.808;2023-09-18T03:33:26;4.47;;;3.63;;
62584;SDS011;48643;51.670;5.808;2023-09-18T03:35:54;5.72;;;3.85;;
62584;SDS011;48643;51.670;5.808;2023-09-18T03:38:25;5.85;;;3.90;;
62584;SDS011;48643;51.670;5.808;2023-09-18T03:40:53;5.18;;;3.90;;
62584;SDS011;48643;51.670;5.808;2023-09-18T03:43:20;5.72;;;3.63;;
62584;SDS011;48643;51.670;5.808;2023-09-18T03:45:48;5.80;;;3.75;;
62584;SDS011;48643;51.670;5.808;2023-09-18T03:48:15;4.88;;;3.90;;
62584;SDS011;48643;51.670;5.808;2023-09-18T03:50:42;7.47;;;4.00;;
62584;SDS011;48643;51.670;5.808;2023-09-18T03:53:10;4.47;;;3.55;;
62584;SDS011;48643;51.670;5.808;2023-09-18T03:55:37;4.88;;;3.83;;
62584;SDS011;48643;51.670;5.808;2023-09-18T03:58:04;5.13;;;3.75;;
62584;SDS011;48643;51.670;5.808;2023-09-18T04:00:31;5.13;;;3.45;;
62584;SDS011;48643;51.670;5.808;2023-09-18T04:02:58;4.45;;;3.63;;
62584;SDS011;48643;51.670;5.808;2023-09-18T04:05:26;9.63;;;3.90;;
62584;SDS011;48643;51.670;5.808;2023-09-18T04:07:55;5.45;;;3.80;;
62584;SDS011;48643;51.670;5.808;2023-09-18T04:10:22;5.15;;;3.67;;
62584;SDS011;48643;51.670;5.808;2023-09-18T04:12:50;6.15;;;4.10;;
62584;SDS011;48643;51.670;5.808;2023-09-18T04:15:18;5.00;;;3.60;;
62584;SDS011;48643;51.670;5.808;2023-09-18T04:17:46;7.15;;;3.95;;
62584;SDS011;48643;51.670;5.808;2023-09-18T04:20:13;7.63;;;4.07;;
62584;SDS011;48643;51.670;5.808;2023-09-18T04:22:47;6.13;;;4.10;;
62584;SDS011;48643;51.670;5.808;2023-09-18T04:25:18;7.95;;;4.20;;
62584;SDS011;48643;51.670;5.808;2023-09-18T04:27:46;6.57;;;3.90;;
62584;SDS011;48643;51.670;5.808;2023-09-18T04:30:16;6.28;;;3.85;;
62584;SDS011;48643;51.670;5.808;2023-09-18T04:32:46;8.27;;;4.13;;
62584;SDS011;48643;51.670;5.808;2023-09-18T04:35:14;7.03;;;3.92;;
62584;SDS011;48643;51.670;5.808;2023-09-18T04:37:41;5.55;;;3.70;;
62584;SDS011;48643;51.670;5.808;2023-09-18T04:40:08;7.55;;;4.15;;
62584;SDS011;48643;51.670;5.808;2023-09-18T04:42:38;9.10;;;3.92;;
62584;SDS011;48643;51.670;5.808;2023-09-18T04:45:06;7.57;;;4.30;;
62584;SDS011;48643;51.670;5.808;2023-09-18T04:47:34;8.40;;;3.92;;
62584;SDS011;48643;51.670;5.808;2023-09-18T04:50:02;7.93;;;3.90;;
62584;SDS011;48643;51.670;5.808;2023-09-18T04:52:36;8.48;;;3.95;;
62584;SDS011;48643;51.670;5.808;2023-09-18T04:55:04;5.88;;;3.95;;
62584;SDS011;48643;51.670;5.808;2023-09-18T04:57:32;6.22;;;3.80;;
62584;SDS011;48643;51.670;5.808;2023-09-18T05:00:01;8.07;;;3.88;;
62584;SDS011;48643;51.670;5.808;2023-09-18T05:02:43;6.90;;;4.00;;
62584;SDS011;48643;51.670;5.808;2023-09-18T05:05:11;8.50;;;3.90;;
62584;SDS011;48643;51.670;5.808;2023-09-18T05:07:38;8.90;;;4.20;;
62584;SDS011;48643;51.670;5.808;2023-09-18T05:10:05;6.88;;;3.97;;
62584;SDS011;48643;51.670;5.808;2023-09-18T05:12:32;10.80;;;3.90;;
62584;SDS011;48643;51.670;5.808;2023-09-18T05:14:59;7.70;;;3.70;;
62584;SDS011;48643;51.670;5.808;2023-09-18T05:17:45;5.63;;;3.70;;
62584;SDS011;48643;51.670;5.808;2023-09-18T05:20:16;7.43;;;3.83;;
62584;SDS011;48643;51.670;5.808;2023-09-18T05:22:44;6.43;;;3.88;;
62584;SDS011;48643;51.670;5.808;2023-09-18T05:25:12;6.85;;;3.67;;
62584;SDS011;48643;51.670;5.808;2023-09-18T05:27:41;6.43;;;3.78;;
62584;SDS011;48643;51.670;5.808;2023-09-18T05:32:48;6.03;;;3.95;;
62584;SDS011;48643;51.670;5.808;2023-09-18T05:35:15;7.97;;;3.95;;
62584;SDS011;48643;51.670;5.808;2023-09-18T05:37:43;7.80;;;3.80;;
62584;SDS011;48643;51.670;5.808;2023-09-18T05:40:11;8.30;;;3.90;;
62584;SDS011;48643;51.670;5.808;2023-09-18T05:42:40;9.38;;;4.30;;
62584;SDS011;48643;51.670;5.808;2023-09-18T05:45:12;6.68;;;3.80;;
62584;SDS011;48643;51.670;5.808;2023-09-18T05:47:39;5.47;;;3.90;;
62584;SDS011;48643;51.670;5.808;2023-09-18T05:50:09;8.35;;;4.00;;
62584;SDS011;48643;51.670;5.808;2023-09-18T05:52:41;8.60;;;3.97;;
62584;SDS011;48643;51.670;5.808;2023-09-18T05:55:12;5.50;;;3.50;;
62584;SDS011;48643;51.670;5.808;2023-09-18T05:57:42;5.95;;;3.80;;
62584;SDS011;48643;51.670;5.808;2023-09-18T06:00:09;7.05;;;3.70;;
62584;SDS011;48643;51.670;5.808;2023-09-18T06:02:40;9.27;;;3.90;;
62584;SDS011;48643;51.670;5.808;2023-09-18T06:05:11;7.97;;;3.63;;
62584;SDS011;48643;51.670;5.808;2023-09-18T06:07:39;8.85;;;3.60;;
62584;SDS011;48643;51.670;5.808;2023-09-18T06:10:06;5.88;;;3.60;;
62584;SDS011;48643;51.670;5.808;2023-09-18T06:12:33;7.03;;;3.42;;
62584;SDS011;48643;51.670;5.808;2023-09-18T06:15:00;6.40;;;3.47;;
62584;SDS011;48643;51.670;5.808;2023-09-18T06:17:27;5.88;;;3.30;;
62584;SDS011;48643;51.670;5.808;2023-09-18T06:19:54;6.03;;;3.30;;
62584;SDS011;48643;51.670;5.808;2023-09-18T06:22:22;6.05;;;3.30;;
62584;SDS011;48643;51.670;5.808;2023-09-18T06:24:48;6.22;;;3.22;;
62584;SDS011;48643;51.670;5.808;2023-09-18T06:27:15;5.70;;;3.10;;
62584;SDS011;48643;51.670;5.808;2023-09-18T06:29:42;9.65;;;2.90;;
62584;SDS011;48643;51.670;5.808;2023-09-18T06:32:09;4.63;;;2.65;;
62584;SDS011;48643;51.670;5.808;2023-09-18T06:34:36;12.98;;;3.22;;
62584;SDS011;48643;51.670;5.808;2023-09-18T06:37:03;5.85;;;2.72;;
62584;SDS011;48643;51.670;5.808;2023-09-18T06:39:32;9.93;;;2.55;;
62584;SDS011;48643;51.670;5.808;2023-09-18T06:41:59;7.40;;;2.90;;
62584;SDS011;48643;51.670;5.808;2023-09-18T06:44:25;6.15;;;2.75;;
62584;SDS011;48643;51.670;5.808;2023-09-18T06:46:53;4.75;;;2.53;;
62584;SDS011;48643;51.670;5.808;2023-09-18T06:49:20;11.75;;;2.55;;
62584;SDS011;48643;51.670;5.808;2023-09-18T06:51:47;7.78;;;2.65;;
62584;SDS011;48643;51.670;5.808;2023-09-18T06:54:14;7.85;;;2.40;;
62584;SDS011;48643;51.670;5.808;2023-09-18T06:56:41;4.72;;;2.50;;
62584;SDS011;48643;51.670;5.808;2023-09-18T06:59:11;6.45;;;2.30;;
62584;SDS011;48643;51.670;5.808;2023-09-18T07:01:38;7.45;;;2.20;;
62584;SDS011;48643;51.670;5.808;2023-09-18T07:04:06;4.93;;;2.30;;
62584;SDS011;48643;51.670;5.808;2023-09-18T07:06:33;5.53;;;2.03;;
62584;SDS011;48643;51.670;5.808;2023-09-18T07:09:00;8.00;;;2.30;;
62584;SDS011;48643;51.670;5.808;2023-09-18T07:11:28;6.28;;;2.40;;
62584;SDS011;48643;51.670;5.808;2023-09-18T07:13:55;5.10;;;2.17;;
62584;SDS011;48643;51.670;5.808;2023-09-18T07:16:22;5.63;;;2.30;;
62584;SDS011;48643;51.670;5.808;2023-09-18T07:18:48;7.13;;;2.00;;
62584;SDS011;48643;51.670;5.808;2023-09-18T07:21:16;8.93;;;2.45;;
62584;SDS011;48643;51.670;5.808;2023-09-18T07:23:42;11.40;;;2.20;;
62584;SDS011;48643;51.670;5.808;2023-09-18T07:26:11;10.65;;;2.05;;
62584;SDS011;48643;51.670;5.808;2023-09-18T07:28:38;10.32;;;2.10;;
62584;SDS011;48643;51.670;5.808;2023-09-18T07:31:07;4.22;;;2.15;;
62584;SDS011;48643;51.670;5.808;2023-09-18T07:33:35;5.85;;;2.10;;
62584;SDS011;48643;51.670;5.808;2023-09-18T07:36:02;3.55;;;2.10;;
62584;SDS011;48643;51.670;5.808;2023-09-18T07:38:29;6.00;;;2.00;;
62584;SDS011;48643;51.670;5.808;2023-09-18T07:40:57;3.47;;;2.10;;
62584;SDS011;48643;51.670;5.808;2023-09-18T07:43:24;3.38;;;1.90;;
62584;SDS011;48643;51.670;5.808;2023-09-18T07:45:52;5.40;;;2.25;;
62584;SDS011;48643;51.670;5.808;2023-09-18T07:48:19;4.07;;;2.10;;
62584;SDS011;48643;51.670;5.808;2023-09-18T07:50:48;7.17;;;2.10;;
62584;SDS011;48643;51.670;5.808;2023-09-18T07:53:17;7.45;;;2.00;;
62584;SDS011;48643;51.670;5.808;2023-09-18T07:55:45;5.35;;;2.30;;
62584;SDS011;48643;51.670;5.808;2023-09-18T07:58:14;5.38;;;2.10;;
62584;SDS011;48643;51.670;5.808;2023-09-18T08:00:41;6.57;;;2.08;;
62584;SDS011;48643;51.670;5.808;2023-09-18T08:03:08;8.68;;;2.10;;
62584;SDS011;48643;51.670;5.808;2023-09-18T08:05:36;4.88;;;1.98;;
62584;SDS011;48643;51.670;5.808;2023-09-18T08:08:03;5.30;;;2.20;;
62584;SDS011;48643;51.670;5.808;2023-09-18T08:10:31;4.88;;;2.00;;
62584;SDS011;48643;51.670;5.808;2023-09-18T08:12:59;3.08;;;1.90;;
62584;SDS011;48643;51.670;5.808;2023-09-18T08:15:26;7.18;;;2.03;;
62584;SDS011;48643;51.670;5.808;2023-09-18T08:17:53;4.38;;;2.10;;
62584;SDS011;48643;51.670;5.808;2023-09-18T08:20:20;4.82;;;2.20;;
62584;SDS011;48643;51.670;5.808;2023-09-18T08:22:47;4.25;;;2.15;;
62584;SDS011;48643;51.670;5.808;2023-09-18T08:25:15;3.65;;;2.10;;
62584;SDS011;48643;51.670;5.808;2023-09-18T08:27:42;7.70;;;2.30;;
62584;SDS011;48643;51.670;5.808;2023-09-18T08:32:39;4.05;;;2.30;;
62584;SDS011;48643;51.670;5.808;2023-09-18T08:35:07;6.63;;;1.98;;
62584;SDS011;48643;51.670;5.808;2023-09-18T08:40:03;6.38;;;2.20;;
62584;SDS011;48643;51.670;5.808;2023-09-18T08:42:44;5.95;;;2.30;;
62584;SDS011;48643;51.670;5.808;2023-09-18T08:45:14;6.43;;;2.08;;
62584;SDS011;48643;51.670;5.808;2023-09-18T08:47:57;7.80;;;2.40;;
62584;SDS011;48643;51.670;5.808;2023-09-18T08:50:25;5.97;;;2.30;;
62584;SDS011;48643;51.670;5.808;2023-09-18T08:52:53;5.18;;;2.15;;
62584;SDS011;48643;51.670;5.808;2023-09-18T08:55:20;6.03;;;2.10;;
62584;SDS011;48643;51.670;5.808;2023-09-18T08:57:48;8.15;;;2.08;;
62584;SDS011;48643;51.670;5.808;2023-09-18T09:00:15;6.60;;;2.10;;
62584;SDS011;48643;51.670;5.808;2023-09-18T09:02:45;5.80;;;2.10;;
62584;SDS011;48643;51.670;5.808;2023-09-18T09:05:15;4.00;;;2.03;;
62584;SDS011;48643;51.670;5.808;2023-09-18T09:07:42;6.13;;;2.40;;
62584;SDS011;48643;51.670;5.808;2023-09-18T09:10:09;6.05;;;2.25;;
62584;SDS011;48643;51.670;5.808;2023-09-18T09:12:55;6.40;;;1.95;;
62584;SDS011;48643;51.670;5.808;2023-09-18T09:15:25;10.13;;;2.42;;
62584;SDS011;48643;51.670;5.808;2023-09-18T09:18:03;9.90;;;2.20;;
62584;SDS011;48643;51.670;5.808;2023-09-18T09:20:32;5.23;;;2.40;;
62584;SDS011;48643;51.670;5.808;2023-09-18T09:23:00;5.18;;;2.25;;
62584;SDS011;48643;51.670;5.808;2023-09-18T09:25:31;5.97;;;2.10;;
62584;SDS011;48643;51.670;5.808;2023-09-18T09:28:03;4.10;;;2.25;;
62584;SDS011;48643;51.670;5.808;2023-09-18T09:30:32;5.68;;;2.20;;
62584;SDS011;48643;51.670;5.808;2023-09-18T09:33:00;3.60;;;1.80;;
62584;SDS011;48643;51.670;5.808;2023-09-18T09:35:30;4.75;;;2.28;;
62584;SDS011;48643;51.670;5.808;2023-09-18T09:37:58;9.18;;;2.60;;
62584;SDS011;48643;51.670;5.808;2023-09-18T09:40:38;4.28;;;2.15;;
62584;SDS011;48643;51.670;5.808;2023-09-18T09:43:08;7.50;;;2.17;;
62584;SDS011;48643;51.670;5.808;2023-09-18T09:45:36;6.07;;;2.15;;
62584;SDS011;48643;51.670;5.808;2023-09-18T09:48:03;5.85;;;2.20;;
62584;SDS011;48643;51.670;5.808;2023-09-18T09:50:33;4.95;;;2.13;;
62584;SDS011;48643;51.670;5.808;2023-09-18T09:53:41;5.65;;;2.40;;
62584;SDS011;48643;51.670;5.808;2023-09-18T09:56:15;4.13;;;2.17;;
62584;SDS011;48643;51.670;5.808;2023-09-18T09:59:04;6.85;;;2.50;;
62584;SDS011;48643;51.670;5.808;2023-09-18T10:01:35;11.35;;;3.05;;
62584;SDS011;48643;51.670;5.808;2023-09-18T10:04:05;6.30;;;3.50;;
62584;SDS011;48643;51.670;5.808;2023-09-18T10:06:36;9.77;;;5.28;;
62584;SDS011;48643;51.670;5.808;2023-09-18T10:09:03;8.00;;;3.72;;
62584;SDS011;48643;51.670;5.808;2023-09-18T10:11:34;14.98;;;5.78;;
62584;SDS011;48643;51.670;5.808;2023-09-18T10:14:17;8.15;;;3.72;;
62584;SDS011;48643;51.670;5.808;2023-09-18T10:16:50;8.95;;;3.95;;
62584;SDS011;48643;51.670;5.808;2023-09-18T10:19:32;9.15;;;3.03;;
62584;SDS011;48643;51.670;5.808;2023-09-18T10:22:17;7.72;;;3.03;;
62584;SDS011;48643;51.670;5.808;2023-09-18T10:24:50;7.30;;;3.15;;
62584;SDS011;48643;51.670;5.808;2023-09-18T10:27:18;7.40;;;3.10;;
62584;SDS011;48643;51.670;5.808;2023-09-18T10:29:48;7.50;;;2.58;;
62584;SDS011;48643;51.670;5.808;2023-09-18T10:32:17;5.93;;;2.80;;
62584;SDS011;48643;51.670;5.808;2023-09-18T10:37:14;6.90;;;2.67;;
62584;SDS011;48643;51.670;5.808;2023-09-18T10:39:42;6.18;;;2.45;;
62584;SDS011;48643;51.670;5.808;2023-09-18T10:42:14;6.15;;;2.75;;
62584;SDS011;48643;51.670;5.808;2023-09-18T10:47:10;7.22;;;2.63;;
62584;SDS011;48643;51.670;5.808;2023-09-18T10:49:38;7.00;;;2.70;;
62584;SDS011;48643;51.670;5.808;2023-09-18T10:52:05;5.97;;;2.65;;
62584;SDS011;48643;51.670;5.808;2023-09-18T10:54:31;7.75;;;2.60;;
62584;SDS011;48643;51.670;5.808;2023-09-18T10:56:59;8.13;;;2.50;;
62584;SDS011;48643;51.670;5.808;2023-09-18T11:01:55;5.57;;;2.75;;
62584;SDS011;48643;51.670;5.808;2023-09-18T11:04:23;6.63;;;2.80;;
62584;SDS011;48643;51.670;5.808;2023-09-18T11:07:36;9.07;;;2.85;;
62584;SDS011;48643;51.670;5.808;2023-09-18T11:09:47;5.00;;;2.58;;
62584;SDS011;48643;51.670;5.808;2023-09-18T11:12:15;6.82;;;2.90;;
62584;SDS011;48643;51.670;5.808;2023-09-18T11:17:36;9.30;;;2.92;;
62584;SDS011;48643;51.670;5.808;2023-09-18T11:20:08;7.03;;;2.70;;
62584;SDS011;48643;51.670;5.808;2023-09-18T11:22:46;8.00;;;3.00;;
62584;SDS011;48643;51.670;5.808;2023-09-18T11:28:01;6.15;;;2.65;;
62584;SDS011;48643;51.670;5.808;2023-09-18T11:30:29;5.60;;;2.80;;
62584;SDS011;48643;51.670;5.808;2023-09-18T11:32:56;13.68;;;2.85;;
62584;SDS011;48643;51.670;5.808;2023-09-18T11:35:24;7.93;;;2.90;;
62584;SDS011;48643;51.670;5.808;2023-09-18T11:38:08;7.57;;;2.95;;
62584;SDS011;48643;51.670;5.808;2023-09-18T11:40:37;7.97;;;2.60;;
62584;SDS011;48643;51.670;5.808;2023-09-18T11:45:58;7.57;;;2.92;;
62584;SDS011;48643;51.670;5.808;2023-09-18T11:50:57;5.60;;;2.75;;
62584;SDS011;48643;51.670;5.808;2023-09-18T11:53:26;9.23;;;2.45;;
62584;SDS011;48643;51.670;5.808;2023-09-18T11:55:53;6.15;;;2.78;;
62584;SDS011;48643;51.670;5.808;2023-09-18T11:58:21;7.20;;;2.60;;
62584;SDS011;48643;51.670;5.808;2023-09-18T12:00:52;5.93;;;2.60;;
62584;SDS011;48643;51.670;5.808;2023-09-18T12:03:21;11.25;;;3.00;;
62584;SDS011;48643;51.670;5.808;2023-09-18T12:05:53;5.63;;;2.50;;
62584;SDS011;48643;51.670;5.808;2023-09-18T12:08:23;5.18;;;2.55;;
62584;SDS011;48643;51.670;5.808;2023-09-18T12:10:53;6.00;;;2.55;;
62584;SDS011;48643;51.670;5.808;2023-09-18T12:13:20;6.45;;;2.70;;
62584;SDS011;48643;51.670;5.808;2023-09-18T12:15:48;5.13;;;2.50;;
62584;SDS011;48643;51.670;5.808;2023-09-18T12:18:15;7.55;;;2.72;;
62584;SDS011;48643;51.670;5.808;2023-09-18T12:20:47;6.82;;;2.67;;
62584;SDS011;48643;51.670;5.808;2023-09-18T12:23:14;4.13;;;2.40;;
62584;SDS011;48643;51.670;5.808;2023-09-18T12:25:44;5.72;;;2.75;;
62584;SDS011;48643;51.670;5.808;2023-09-18T12:28:12;5.60;;;2.60;;
62584;SDS011;48643;51.670;5.808;2023-09-18T12:30:41;3.53;;;2.20;;
62584;SDS011;48643;51.670;5.808;2023-09-18T12:33:08;6.53;;;2.60;;
62584;SDS011;48643;51.670;5.808;2023-09-18T12:35:36;5.07;;;2.30;;
62584;SDS011;48643;51.670;5.808;2023-09-18T12:38:12;6.60;;;2.40;;
62584;SDS011;48643;51.670;5.808;2023-09-18T12:40:40;4.70;;;2.35;;
62584;SDS011;48643;51.670;5.808;2023-09-18T12:43:07;4.22;;;2.50;;
62584;SDS011;48643;51.670;5.808;2023-09-18T12:45:34;5.75;;;2.47;;
62584;SDS011;48643;51.670;5.808;2023-09-18T12:48:01;5.60;;;2.45;;
62584;SDS011;48643;51.670;5.808;2023-09-18T12:53:06;4.68;;;2.10;;
62584;SDS011;48643;51.670;5.808;2023-09-18T12:55:40;4.38;;;2.60;;
62584;SDS011;48643;51.670;5.808;2023-09-18T13:00:47;4.03;;;2.13;;
62584;SDS011;48643;51.670;5.808;2023-09-18T13:03:19;4.93;;;2.38;;
62584;SDS011;48643;51.670;5.808;2023-09-18T13:05:46;4.07;;;2.30;;
62584;SDS011;48643;51.670;5.808;2023-09-18T13:08:15;5.32;;;2.50;;
62584;SDS011;48643;51.670;5.808;2023-09-18T13:10:46;4.83;;;2.20;;
62584;SDS011;48643;51.670;5.808;2023-09-18T13:13:19;5.43;;;2.47;;
62584;SDS011;48643;51.670;5.808;2023-09-18T13:15:48;4.45;;;2.55;;
62584;SDS011;48643;51.670;5.808;2023-09-18T13:18:19;4.00;;;2.40;;
62584;SDS011;48643;51.670;5.808;2023-09-18T13:20:46;7.88;;;2.35;;
62584;SDS011;48643;51.670;5.808;2023-09-18T13:23:13;3.90;;;2.50;;
62584;SDS011;48643;51.670;5.808;2023-09-18T13:25:47;5.20;;;2.20;;
62584;SDS011;48643;51.670;5.808;2023-09-18T13:28:14;5.68;;;2.65;;
62584;SDS011;48643;51.670;5.808;2023-09-18T13:30:41;4.25;;;2.10;;
62584;SDS011;48643;51.670;5.808;2023-09-18T13:33:09;5.90;;;2.33;;
62584;SDS011;48643;51.670;5.808;2023-09-18T13:35:38;6.55;;;2.65;;
62584;SDS011;48643;51.670;5.808;2023-09-18T13:38:07;4.68;;;2.55;;
62584;SDS011;48643;51.670;5.808;2023-09-18T13:40:34;4.20;;;2.50;;
62584;SDS011;48643;51.670;5.808;2023-09-18T13:43:05;6.15;;;2.70;;
62584;SDS011;48643;51.670;5.808;2023-09-18T13:45:34;7.65;;;2.95;;
62584;SDS011;48643;51.670;5.808;2023-09-18T13:48:02;8.55;;;2.70;;
62584;SDS011;48643;51.670;5.808;2023-09-18T13:50:30;7.20;;;2.58;;
62584;SDS011;48643;51.670;5.808;2023-09-18T13:52:57;7.03;;;3.00;;
62584;SDS011;48643;51.670;5.808;2023-09-18T13:55:29;5.68;;;2.58;;
62584;SDS011;48643;51.670;5.808;2023-09-18T13:57:59;5.50;;;2.60;;
62584;SDS011;48643;51.670;5.808;2023-09-18T14:00:29;4.65;;;2.47;;
62584;SDS011;48643;51.670;5.808;2023-09-18T14:02:57;5.25;;;2.30;;
62584;SDS011;48643;51.670;5.808;2023-09-18T14:05:24;4.80;;;2.60;;
62584;SDS011;48643;51.670;5.808;2023-09-18T14:07:53;4.50;;;2.28;;
62584;SDS011;48643;51.670;5.808;2023-09-18T14:10:26;5.15;;;2.50;;
62584;SDS011;48643;51.670;5.808;2023-09-18T14:12:54;7.72;;;2.67;;
62584;SDS011;48643;51.670;5.808;2023-09-18T14:15:21;6.38;;;2.50;;
62584;SDS011;48643;51.670;5.808;2023-09-18T14:17:47;6.07;;;2.70;;
62584;SDS011;48643;51.670;5.808;2023-09-18T14:20:16;4.18;;;2.58;;
62584;SDS011;48643;51.670;5.808;2023-09-18T14:22:46;7.45;;;2.60;;
62584;SDS011;48643;51.670;5.808;2023-09-18T14:25:16;8.20;;;2.88;;
62584;SDS011;48643;51.670;5.808;2023-09-18T14:27:43;4.55;;;2.58;;
62584;SDS011;48643;51.670;5.808;2023-09-18T14:30:10;4.35;;;3.00;;
62584;SDS011;48643;51.670;5.808;2023-09-18T14:32:39;5.72;;;2.92;;
62584;SDS011;48643;51.670;5.808;2023-09-18T14:35:06;6.30;;;3.03;;
62584;SDS011;48643;51.670;5.808;2023-09-18T14:37:36;4.60;;;2.70;;
62584;SDS011;48643;51.670;5.808;2023-09-18T14:40:03;4.55;;;2.30;;
62584;SDS011;48643;51.670;5.808;2023-09-18T14:42:30;6.57;;;2.40;;
62584;SDS011;48643;51.670;5.808;2023-09-18T14:44:57;7.70;;;2.40;;
62584;SDS011;48643;51.670;5.808;2023-09-18T14:47:24;6.15;;;2.88;;
62584;SDS011;48643;51.670;5.808;2023-09-18T14:49:51;7.43;;;2.60;;
62584;SDS011;48643;51.670;5.808;2023-09-18T14:52:18;6.50;;;2.38;;
62584;SDS011;48643;51.670;5.808;2023-09-18T14:57:13;3.97;;;2.40;;
62584;SDS011;48643;51.670;5.808;2023-09-18T14:59:40;3.85;;;2.25;;
62584;SDS011;48643;51.670;5.808;2023-09-18T15:02:13;7.68;;;2.47;;
62584;SDS011;48643;51.670;5.808;2023-09-18T15:04:41;9.20;;;2.78;;
62584;SDS011;48643;51.670;5.808;2023-09-18T15:07:08;6.95;;;2.65;;
62584;SDS011;48643;51.670;5.808;2023-09-18T15:09:37;7.00;;;2.40;;
62584;SDS011;48643;51.670;5.808;2023-09-18T15:12:07;5.18;;;2.63;;
62584;SDS011;48643;51.670;5.808;2023-09-18T15:14:35;5.40;;;2.47;;
62584;SDS011;48643;51.670;5.808;2023-09-18T15:17:03;4.05;;;2.30;;
62584;SDS011;48643;51.670;5.808;2023-09-18T15:19:30;2.85;;;2.20;;
62584;SDS011;48643;51.670;5.808;2023-09-18T15:21:57;5.05;;;2.42;;
62584;SDS011;48643;51.670;5.808;2023-09-18T15:24:24;7.68;;;2.42;;
62584;SDS011;48643;51.670;5.808;2023-09-18T15:26:51;6.50;;;2.75;;
62584;SDS011;48643;51.670;5.808;2023-09-18T15:29:18;13.88;;;9.07;;
62584;SDS011;48643;51.670;5.808;2023-09-18T15:31:45;8.77;;;7.88;;